YYRK weather

York Airport
Western Australia, Australia

Public forecast

Using degrees Celsius for public forecast. Weather courtesy of forecast.io.

METAR (pilot weather report)

Closest report is RAAF Base Pearce, 41.6 nm (77.0 km) WNW. Retrieved 2019/03/21 01:30 UTC (19 minutes ago):

YPEA 210130Z 04005KT 360V070 CAVOK 27/18 Q1010 NOSIG

TAF (pilot weather forecast)

Forecast is more than 12 hours old.

Closest forecast is RAAF Base Pearce, 41.6 nm (77.0 km) WNW. Retrieved 2019/03/20 00:00 UTC (1 day ago):

TAF YPEA 202252Z 2100/2118 04008KT CAVOK FM210400 25010KT CAVOK FM211400 VRB03KT 5000 BR SCT008 PROB30 2115/2118 0400 FG BKN005